sensor_id;sensor_type;location;lat;lon;timestamp;temperature;humidity
71096;DHT22;58753;49.440;11.126;2023-08-07T00:00:05;11.69;94.07
71096;DHT22;58753;49.440;11.126;2023-08-07T00:02:36;11.65;94.17
71096;DHT22;58753;49.440;11.126;2023-08-07T00:05:02;11.69;94.28
71096;DHT22;58753;49.440;11.126;2023-08-07T00:07:27;11.65;94.33
71096;DHT22;58753;49.440;11.126;2023-08-07T00:09:52;11.69;94.42
71096;DHT22;58753;49.440;11.126;2023-08-07T00:12:23;11.65;94.40
71096;DHT22;58753;49.440;11.126;2023-08-07T00:14:52;11.63;94.29
71096;DHT22;58753;49.440;11.126;2023-08-07T00:17:20;11.60;94.47
71096;DHT22;58753;49.440;11.126;2023-08-07T00:19:45;11.62;94.54
71096;DHT22;58753;49.440;11.126;2023-08-07T00:22:13;11.62;94.49
71096;DHT22;58753;49.440;11.126;2023-08-07T00:24:38;11.59;94.54
71096;DHT22;58753;49.440;11.126;2023-08-07T00:27:04;11.60;94.59
71096;DHT22;58753;49.440;11.126;2023-08-07T00:29:35;11.59;94.54
71096;DHT22;58753;49.440;11.126;2023-08-07T00:32:02;11.59;94.60
71096;DHT22;58753;49.440;11.126;2023-08-07T00:34:28;11.57;94.72
71096;DHT22;58753;49.440;11.126;2023-08-07T00:36:56;11.53;94.66
71096;DHT22;58753;49.440;11.126;2023-08-07T00:39:21;11.55;94.83
71096;DHT22;58753;49.440;11.126;2023-08-07T00:41:49;11.55;94.82
71096;DHT22;58753;49.440;11.126;2023-08-07T00:44:16;11.49;94.67
71096;DHT22;58753;49.440;11.126;2023-08-07T00:46:42;11.47;94.81
71096;DHT22;58753;49.440;11.126;2023-08-07T00:49:09;11.49;94.90
71096;DHT22;58753;49.440;11.126;2023-08-07T00:51:36;11.46;94.88
71096;DHT22;58753;49.440;11.126;2023-08-07T00:54:05;11.44;94.89
71096;DHT22;58753;49.440;11.126;2023-08-07T00:56:37;11.40;94.95
71096;DHT22;58753;49.440;11.126;2023-08-07T00:59:02;11.40;95.00
71096;DHT22;58753;49.440;11.126;2023-08-07T01:01:28;11.40;95.11
71096;DHT22;58753;49.440;11.126;2023-08-07T01:03:56;11.42;95.23
71096;DHT22;58753;49.440;11.126;2023-08-07T01:06:21;11.40;95.17
71096;DHT22;58753;49.440;11.126;2023-08-07T01:08:49;11.40;95.18
71096;DHT22;58753;49.440;11.126;2023-08-07T01:12:42;11.32;95.01
71096;DHT22;58753;49.440;11.126;2023-08-07T01:17:10;11.39;95.55
71096;DHT22;58753;49.440;11.126;2023-08-07T01:19:37;11.40;95.36
71096;DHT22;58753;49.440;11.126;2023-08-07T01:22:15;11.35;95.35
71096;DHT22;58753;49.440;11.126;2023-08-07T01:24:46;11.33;95.30
71096;DHT22;58753;49.440;11.126;2023-08-07T01:32:28;11.25;95.45
71096;DHT22;58753;49.440;11.126;2023-08-07T01:34:57;11.29;95.49
71096;DHT22;58753;49.440;11.126;2023-08-07T01:37:25;11.25;95.47
71096;DHT22;58753;49.440;11.126;2023-08-07T01:39:54;11.23;95.54
71096;DHT22;58753;49.440;11.126;2023-08-07T01:42:20;11.22;95.48
71096;DHT22;58753;49.440;11.126;2023-08-07T01:44:48;11.22;95.75
71096;DHT22;58753;49.440;11.126;2023-08-07T01:47:14;11.22;95.61
71096;DHT22;58753;49.440;11.126;2023-08-07T01:49:42;11.19;95.57
71096;DHT22;58753;49.440;11.126;2023-08-07T01:52:10;11.22;95.62
71096;DHT22;58753;49.440;11.126;2023-08-07T01:54:38;11.22;95.63
71096;DHT22;58753;49.440;11.126;2023-08-07T01:57:06;11.23;95.66
71096;DHT22;58753;49.440;11.126;2023-08-07T01:59:31;11.19;95.74
71096;DHT22;58753;49.440;11.126;2023-08-07T02:01:59;11.19;95.71
71096;DHT22;58753;49.440;11.126;2023-08-07T02:04:25;11.18;95.74
71096;DHT22;58753;49.440;11.126;2023-08-07T02:06:50;11.14;95.75
71096;DHT22;58753;49.440;11.126;2023-08-07T02:09:18;11.15;95.75
71096;DHT22;58753;49.440;11.126;2023-08-07T02:11:43;11.14;95.72
71096;DHT22;58753;49.440;11.126;2023-08-07T02:14:09;11.11;95.84
71096;DHT22;58753;49.440;11.126;2023-08-07T02:16:35;11.14;95.78
71096;DHT22;58753;49.440;11.126;2023-08-07T02:19:06;11.14;95.74
71096;DHT22;58753;49.440;11.126;2023-08-07T02:21:31;11.11;95.82
71096;DHT22;58753;49.440;11.126;2023-08-07T02:23:57;11.08;95.76
71096;DHT22;58753;49.440;11.126;2023-08-07T02:26:27;11.08;95.76
71096;DHT22;58753;49.440;11.126;2023-08-07T02:28:52;11.05;95.93
71096;DHT22;58753;49.440;11.126;2023-08-07T02:31:18;11.06;95.90
71096;DHT22;58753;49.440;11.126;2023-08-07T02:33:45;11.04;95.84
71096;DHT22;58753;49.440;11.126;2023-08-07T02:36:10;11.04;95.89
71096;DHT22;58753;49.440;11.126;2023-08-07T02:38:36;11.04;95.89
71096;DHT22;58753;49.440;11.126;2023-08-07T02:41:01;11.04;95.87
71096;DHT22;58753;49.440;11.126;2023-08-07T02:43:31;11.04;96.04
71096;DHT22;58753;49.440;11.126;2023-08-07T02:45:59;11.04;96.00
71096;DHT22;58753;49.440;11.126;2023-08-07T02:48:27;11.02;96.02
71096;DHT22;58753;49.440;11.126;2023-08-07T02:50:52;11.02;96.11
71096;DHT22;58753;49.440;11.126;2023-08-07T02:53:20;10.99;96.06
71096;DHT22;58753;49.440;11.126;2023-08-07T02:55:48;11.01;96.25
71096;DHT22;58753;49.440;11.126;2023-08-07T02:58:13;11.01;96.01
71096;DHT22;58753;49.440;11.126;2023-08-07T03:00:38;11.01;96.10
71096;DHT22;58753;49.440;11.126;2023-08-07T03:03:06;10.99;96.02
71096;DHT22;58753;49.440;11.126;2023-08-07T03:05:34;10.92;96.05
71096;DHT22;58753;49.440;11.126;2023-08-07T03:07:59;10.92;96.13
71096;DHT22;58753;49.440;11.126;2023-08-07T03:10:27;10.95;96.24
71096;DHT22;58753;49.440;11.126;2023-08-07T03:12:52;10.92;96.19
71096;DHT22;58753;49.440;11.126;2023-08-07T03:15:18;10.94;96.17
71096;DHT22;58753;49.440;11.126;2023-08-07T03:17:43;10.94;96.11
71096;DHT22;58753;49.440;11.126;2023-08-07T03:20:11;10.91;96.21
71096;DHT22;58753;49.440;11.126;2023-08-07T03:22:40;10.91;96.15
71096;DHT22;58753;49.440;11.126;2023-08-07T03:25:05;10.91;96.15
71096;DHT22;58753;49.440;11.126;2023-08-07T03:27:31;10.91;96.23
71096;DHT22;58753;49.440;11.126;2023-08-07T03:30:01;10.88;96.14
71096;DHT22;58753;49.440;11.126;2023-08-07T03:32:28;10.85;96.25
71096;DHT22;58753;49.440;11.126;2023-08-07T03:34:54;10.85;96.33
71096;DHT22;58753;49.440;11.126;2023-08-07T03:37:19;10.85;96.33
71096;DHT22;58753;49.440;11.126;2023-08-07T03:39:49;10.84;96.24
71096;DHT22;58753;49.440;11.126;2023-08-07T03:42:19;10.84;96.28
71096;DHT22;58753;49.440;11.126;2023-08-07T03:44:49;10.81;96.31
71096;DHT22;58753;49.440;11.126;2023-08-07T03:47:15;10.82;96.31
71096;DHT22;58753;49.440;11.126;2023-08-07T03:49:43;10.81;96.33
71096;DHT22;58753;49.440;11.126;2023-08-07T03:52:08;10.79;96.39
71096;DHT22;58753;49.440;11.126;2023-08-07T03:54:33;10.78;96.24
71096;DHT22;58753;49.440;11.126;2023-08-07T03:56:59;10.76;96.44
71096;DHT22;58753;49.440;11.126;2023-08-07T03:59:27;10.79;96.44
71096;DHT22;58753;49.440;11.126;2023-08-07T04:01:54;10.79;96.29
71096;DHT22;58753;49.440;11.126;2023-08-07T04:04:22;10.78;96.37
71096;DHT22;58753;49.440;11.126;2023-08-07T04:06:47;10.76;96.45
71096;DHT22;58753;49.440;11.126;2023-08-07T04:09:13;10.78;96.41
71096;DHT22;58753;49.440;11.126;2023-08-07T04:11:40;10.75;96.35
71096;DHT22;58753;49.440;11.126;2023-08-07T04:14:08;10.74;96.41
71096;DHT22;58753;49.440;11.126;2023-08-07T04:16:33;10.74;96.47
71096;DHT22;58753;49.440;11.126;2023-08-07T04:19:04;10.72;96.47
71096;DHT22;58753;49.440;11.126;2023-08-07T04:21:31;10.72;96.39
71096;DHT22;58753;49.440;11.126;2023-08-07T04:23:57;10.76;96.57
71096;DHT22;58753;49.440;11.126;2023-08-07T04:26:22;10.71;96.44
71096;DHT22;58753;49.440;11.126;2023-08-07T04:28:48;10.72;96.50
71096;DHT22;58753;49.440;11.126;2023-08-07T04:31:13;10.74;96.61
71096;DHT22;58753;49.440;11.126;2023-08-07T04:33:38;10.74;96.46
71096;DHT22;58753;49.440;11.126;2023-08-07T04:36:04;10.72;96.47
71096;DHT22;58753;49.440;11.126;2023-08-07T04:38:30;10.72;96.59
71096;DHT22;58753;49.440;11.126;2023-08-07T04:40:58;10.72;96.59
71096;DHT22;58753;49.440;11.126;2023-08-07T04:43:25;10.71;96.49
71096;DHT22;58753;49.440;11.126;2023-08-07T04:45:55;10.68;96.42
71096;DHT22;58753;49.440;11.126;2023-08-07T04:48:25;10.68;96.41
71096;DHT22;58753;49.440;11.126;2023-08-07T04:50:53;10.65;96.49
71096;DHT22;58753;49.440;11.126;2023-08-07T04:53:18;10.67;96.54
71096;DHT22;58753;49.440;11.126;2023-08-07T04:55:44;10.65;96.43
71096;DHT22;58753;49.440;11.126;2023-08-07T04:58:10;10.67;96.44
71096;DHT22;58753;49.440;11.126;2023-08-07T05:00:37;10.63;96.50
71096;DHT22;58753;49.440;11.126;2023-08-07T05:03:05;10.65;96.57
71096;DHT22;58753;49.440;11.126;2023-08-07T05:05:30;10.65;96.55
71096;DHT22;58753;49.440;11.126;2023-08-07T05:07:58;10.67;96.66
71096;DHT22;58753;49.440;11.126;2023-08-07T05:10:25;10.65;96.58
71096;DHT22;58753;49.440;11.126;2023-08-07T05:12:51;10.67;96.66
71096;DHT22;58753;49.440;11.126;2023-08-07T05:15:27;10.64;96.53
71096;DHT22;58753;49.440;11.126;2023-08-07T05:17:56;10.64;96.55
71096;DHT22;58753;49.440;11.126;2023-08-07T05:20:24;10.64;96.65
71096;DHT22;58753;49.440;11.126;2023-08-07T05:22:49;10.65;96.58
71096;DHT22;58753;49.440;11.126;2023-08-07T05:25:15;10.63;96.51
71096;DHT22;58753;49.440;11.126;2023-08-07T05:27:45;10.61;96.64
71096;DHT22;58753;49.440;11.126;2023-08-07T05:30:11;10.61;96.69
71096;DHT22;58753;49.440;11.126;2023-08-07T05:32:37;10.61;96.67
71096;DHT22;58753;49.440;11.126;2023-08-07T05:35:06;10.61;96.67
71096;DHT22;58753;49.440;11.126;2023-08-07T05:37:32;10.63;96.51
71096;DHT22;58753;49.440;11.126;2023-08-07T05:40:01;10.63;96.69
71096;DHT22;58753;49.440;11.126;2023-08-07T05:42:26;10.61;96.64
71096;DHT22;58753;49.440;11.126;2023-08-07T05:44:51;10.61;96.71
71096;DHT22;58753;49.440;11.126;2023-08-07T05:47:17;10.67;96.78
71096;DHT22;58753;49.440;11.126;2023-08-07T05:49:44;10.68;96.76
71096;DHT22;58753;49.440;11.126;2023-08-07T05:52:10;10.65;96.61
71096;DHT22;58753;49.440;11.126;2023-08-07T05:54:35;10.67;96.73
71096;DHT22;58753;49.440;11.126;2023-08-07T05:57:01;10.65;96.74
71096;DHT22;58753;49.440;11.126;2023-08-07T05:59:26;10.67;96.81
71096;DHT22;58753;49.440;11.126;2023-08-07T06:01:55;10.69;96.81
71096;DHT22;58753;49.440;11.126;2023-08-07T06:04:23;10.65;96.62
71096;DHT22;58753;49.440;11.126;2023-08-07T06:06:50;10.64;96.67
71096;DHT22;58753;49.440;11.126;2023-08-07T06:09:16;10.67;96.78
71096;DHT22;58753;49.440;11.126;2023-08-07T06:11:44;10.68;96.82
71096;DHT22;58753;49.440;11.126;2023-08-07T06:14:09;10.71;96.76
71096;DHT22;58753;49.440;11.126;2023-08-07T06:16:35;10.67;96.65
71096;DHT22;58753;49.440;11.126;2023-08-07T06:19:00;10.63;96.73
71096;DHT22;58753;49.440;11.126;2023-08-07T06:21:28;10.65;96.80
71096;DHT22;58753;49.440;11.126;2023-08-07T06:23:54;10.64;96.63
71096;DHT22;58753;49.440;11.126;2023-08-07T06:26:19;10.64;96.71
71096;DHT22;58753;49.440;11.126;2023-08-07T06:28:47;10.63;96.87
71096;DHT22;58753;49.440;11.126;2023-08-07T06:31:13;10.68;96.74
71096;DHT22;58753;49.440;11.126;2023-08-07T06:33:38;10.65;96.75
71096;DHT22;58753;49.440;11.126;2023-08-07T06:36:07;10.63;96.68
71096;DHT22;58753;49.440;11.126;2023-08-07T06:38:34;10.69;96.92
71096;DHT22;58753;49.440;11.126;2023-08-07T06:40:59;10.69;96.75
71096;DHT22;58753;49.440;11.126;2023-08-07T06:43:25;10.64;96.82
71096;DHT22;58753;49.440;11.126;2023-08-07T06:45:53;10.63;96.67
71096;DHT22;58753;49.440;11.126;2023-08-07T06:48:19;10.61;96.94
71096;DHT22;58753;49.440;11.126;2023-08-07T06:50:46;10.64;97.16
71096;DHT22;58753;49.440;11.126;2023-08-07T06:53:14;10.60;97.13
71096;DHT22;58753;49.440;11.126;2023-08-07T06:55:43;10.61;97.12
71096;DHT22;58753;49.440;11.126;2023-08-07T06:58:09;10.63;97.36
71096;DHT22;58753;49.440;11.126;2023-08-07T07:00:37;10.67;97.12
71096;DHT22;58753;49.440;11.126;2023-08-07T07:03:02;10.69;97.20
71096;DHT22;58753;49.440;11.126;2023-08-07T07:05:28;10.72;97.09
71096;DHT22;58753;49.440;11.126;2023-08-07T07:07:55;10.71;96.91
71096;DHT22;58753;49.440;11.126;2023-08-07T07:10:20;10.71;96.91
71096;DHT22;58753;49.440;11.126;2023-08-07T07:12:46;10.65;96.76
71096;DHT22;58753;49.440;11.126;2023-08-07T07:15:12;10.69;96.82
71096;DHT22;58753;49.440;11.126;2023-08-07T07:17:37;10.69;96.92
71096;DHT22;58753;49.440;11.126;2023-08-07T07:20:03;10.74;96.73
71096;DHT22;58753;49.440;11.126;2023-08-07T07:22:31;10.75;97.00
71096;DHT22;58753;49.440;11.126;2023-08-07T07:24:56;10.74;96.80
71096;DHT22;58753;49.440;11.126;2023-08-07T07:27:21;10.75;96.83
71096;DHT22;58753;49.440;11.126;2023-08-07T07:29:53;10.75;96.80
71096;DHT22;58753;49.440;11.126;2023-08-07T07:32:19;10.79;96.85
71096;DHT22;58753;49.440;11.126;2023-08-07T07:34:46;10.79;96.88
71096;DHT22;58753;49.440;11.126;2023-08-07T07:37:14;10.84;96.77
71096;DHT22;58753;49.440;11.126;2023-08-07T07:39:44;10.85;96.83
71096;DHT22;58753;49.440;11.126;2023-08-07T07:42:09;10.92;97.00
71096;DHT22;58753;49.440;11.126;2023-08-07T07:44:37;10.92;96.74
71096;DHT22;58753;49.440;11.126;2023-08-07T07:47:04;10.91;96.69
71096;DHT22;58753;49.440;11.126;2023-08-07T07:49:32;10.92;96.61
71096;DHT22;58753;49.440;11.126;2023-08-07T07:51:58;10.89;96.63
71096;DHT22;58753;49.440;11.126;2023-08-07T07:54:28;10.94;96.68
71096;DHT22;58753;49.440;11.126;2023-08-07T07:56:53;10.94;96.71
71096;DHT22;58753;49.440;11.126;2023-08-07T07:59:18;10.94;96.71
71096;DHT22;58753;49.440;11.126;2023-08-07T08:01:48;10.95;96.61
71096;DHT22;58753;49.440;11.126;2023-08-07T08:04:16;10.98;96.77
71096;DHT22;58753;49.440;11.126;2023-08-07T08:06:44;10.98;96.59
71096;DHT22;58753;49.440;11.126;2023-08-07T08:09:13;10.99;96.65
71096;DHT22;58753;49.440;11.126;2023-08-07T08:11:41;10.95;96.43
71096;DHT22;58753;49.440;11.126;2023-08-07T08:14:09;10.96;96.45
71096;DHT22;58753;49.440;11.126;2023-08-07T08:16:34;10.98;96.59
71096;DHT22;58753;49.440;11.126;2023-08-07T08:19:00;11.02;96.52
71096;DHT22;58753;49.440;11.126;2023-08-07T08:21:25;11.01;96.55
71096;DHT22;58753;49.440;11.126;2023-08-07T08:23:55;11.02;96.49
71096;DHT22;58753;49.440;11.126;2023-08-07T08:26:23;11.01;96.41
71096;DHT22;58753;49.440;11.126;2023-08-07T08:28:51;11.04;96.50
71096;DHT22;58753;49.440;11.126;2023-08-07T08:31:19;11.01;96.35
71096;DHT22;58753;49.440;11.126;2023-08-07T08:33:46;11.06;96.39
71096;DHT22;58753;49.440;11.126;2023-08-07T08:36:11;11.05;96.27
71096;DHT22;58753;49.440;11.126;2023-08-07T08:38:41;11.06;96.27
71096;DHT22;58753;49.440;11.126;2023-08-07T08:41:11;11.09;96.55
71096;DHT22;58753;49.440;11.126;2023-08-07T08:43:38;11.08;96.23
71096;DHT22;58753;49.440;11.126;2023-08-07T08:46:07;11.11;96.28
71096;DHT22;58753;49.440;11.126;2023-08-07T08:48:38;11.11;96.14
71096;DHT22;58753;49.440;11.126;2023-08-07T08:51:07;11.14;96.30
71096;DHT22;58753;49.440;11.126;2023-08-07T08:53:33;11.16;96.27
71096;DHT22;58753;49.440;11.126;2023-08-07T08:56:01;11.16;96.05
71096;DHT22;58753;49.440;11.126;2023-08-07T08:58:30;11.14;95.70
71096;DHT22;58753;49.440;11.126;2023-08-07T09:00:56;11.19;95.80
71096;DHT22;58753;49.440;11.126;2023-08-07T09:03:21;11.20;95.77
71096;DHT22;58753;49.440;11.126;2023-08-07T09:05:47;11.25;95.74
71096;DHT22;58753;49.440;11.126;2023-08-07T09:08:13;11.26;95.57
71096;DHT22;58753;49.440;11.126;2023-08-07T09:10:41;11.28;95.77
71096;DHT22;58753;49.440;11.126;2023-08-07T09:13:12;11.29;95.63
71096;DHT22;58753;49.440;11.126;2023-08-07T09:15:39;11.29;95.43
71096;DHT22;58753;49.440;11.126;2023-08-07T09:18:09;11.32;95.39
71096;DHT22;58753;49.440;11.126;2023-08-07T09:20:37;11.32;95.29
71096;DHT22;58753;49.440;11.126;2023-08-07T09:23:07;11.35;95.21
71096;DHT22;58753;49.440;11.126;2023-08-07T09:25:33;11.33;95.04
71096;DHT22;58753;49.440;11.126;2023-08-07T09:28:03;11.40;95.38
71096;DHT22;58753;49.440;11.126;2023-08-07T09:30:30;11.44;95.18
71096;DHT22;58753;49.440;11.126;2023-08-07T09:32:58;11.47;94.90
71096;DHT22;58753;49.440;11.126;2023-08-07T09:35:29;11.44;94.68
71096;DHT22;58753;49.440;11.126;2023-08-07T09:37:56;11.49;94.86
71096;DHT22;58753;49.440;11.126;2023-08-07T09:40:22;11.52;94.86
71096;DHT22;58753;49.440;11.126;2023-08-07T09:42:52;11.55;94.63
71096;DHT22;58753;49.440;11.126;2023-08-07T09:50:28;11.59;94.10
71096;DHT22;58753;49.440;11.126;2023-08-07T09:52:54;11.65;94.00
71096;DHT22;58753;49.440;11.126;2023-08-07T09:55:30;11.65;93.99
71096;DHT22;58753;49.440;11.126;2023-08-07T09:58:01;11.67;94.18
71096;DHT22;58753;49.440;11.126;2023-08-07T10:00:35;11.67;94.11
71096;DHT22;58753;49.440;11.126;2023-08-07T10:03:04;11.71;94.16
71096;DHT22;58753;49.440;11.126;2023-08-07T10:05:30;11.74;94.09
71096;DHT22;58753;49.440;11.126;2023-08-07T10:07:57;11.73;93.67
71096;DHT22;58753;49.440;11.126;2023-08-07T10:10:25;11.71;93.95
71096;DHT22;58753;49.440;11.126;2023-08-07T10:12:53;11.74;93.88
71096;DHT22;58753;49.440;11.126;2023-08-07T10:15:19;11.81;93.78
71096;DHT22;58753;49.440;11.126;2023-08-07T10:17:47;11.79;93.34
71096;DHT22;58753;49.440;11.126;2023-08-07T10:20:12;11.81;93.44
71096;DHT22;58753;49.440;11.126;2023-08-07T10:22:40;11.86;93.60
71096;DHT22;58753;49.440;11.126;2023-08-07T10:25:09;11.89;93.53
71096;DHT22;58753;49.440;11.126;2023-08-07T10:27:38;11.91;93.56
71096;DHT22;58753;49.440;11.126;2023-08-07T10:30:06;11.91;93.14
71096;DHT22;58753;49.440;11.126;2023-08-07T10:32:35;11.93;93.09
71096;DHT22;58753;49.440;11.126;2023-08-07T10:35:06;11.95;92.97
71096;DHT22;58753;49.440;11.126;2023-08-07T10:37:44;11.94;92.72
71096;DHT22;58753;49.440;11.126;2023-08-07T10:40:13;11.98;92.70
71096;DHT22;58753;49.440;11.126;2023-08-07T10:42:58;12.04;92.57
71096;DHT22;58753;49.440;11.126;2023-08-07T10:45:27;12.02;92.40
71096;DHT22;58753;49.440;11.126;2023-08-07T10:47:57;12.05;92.07
71096;DHT22;58753;49.440;11.126;2023-08-07T10:50:36;12.10;92.17
71096;DHT22;58753;49.440;11.126;2023-08-07T10:53:19;12.13;91.77
71096;DHT22;58753;49.440;11.126;2023-08-07T10:55:46;12.14;91.82
71096;DHT22;58753;49.440;11.126;2023-08-07T10:58:30;12.17;91.94
71096;DHT22;58753;49.440;11.126;2023-08-07T11:01:22;12.20;91.69
71096;DHT22;58753;49.440;11.126;2023-08-07T11:08:50;12.24;91.56
71096;DHT22;58753;49.440;11.126;2023-08-07T11:11:18;12.27;91.28
71096;DHT22;58753;49.440;11.126;2023-08-07T11:13:45;12.32;90.93
71096;DHT22;58753;49.440;11.126;2023-08-07T11:16:11;12.31;90.96
71096;DHT22;58753;49.440;11.126;2023-08-07T11:18:39;12.32;90.70
71096;DHT22;58753;49.440;11.126;2023-08-07T11:21:12;12.32;90.61
71096;DHT22;58753;49.440;11.126;2023-08-07T11:23:41;12.34;90.19
71096;DHT22;58753;49.440;11.126;2023-08-07T11:26:11;12.38;90.49
71096;DHT22;58753;49.440;11.126;2023-08-07T11:28:37;12.40;90.20
71096;DHT22;58753;49.440;11.126;2023-08-07T11:31:02;12.45;90.13
71096;DHT22;58753;49.440;11.126;2023-08-07T11:33:30;12.45;90.04
71096;DHT22;58753;49.440;11.126;2023-08-07T11:35:56;12.48;89.94
71096;DHT22;58753;49.440;11.126;2023-08-07T11:41:03;12.48;89.54
71096;DHT22;58753;49.440;11.126;2023-08-07T11:43:33;12.52;89.65
71096;DHT22;58753;49.440;11.126;2023-08-07T11:46:01;12.52;89.58
71096;DHT22;58753;49.440;11.126;2023-08-07T11:48:27;12.54;89.04
71096;DHT22;58753;49.440;11.126;2023-08-07T11:50:54;12.51;88.96
71096;DHT22;58753;49.440;11.126;2023-08-07T11:53:24;12.52;88.98
71096;DHT22;58753;49.440;11.126;2023-08-07T11:55:57;12.54;88.90
71096;DHT22;58753;49.440;11.126;2023-08-07T11:58:28;12.59;88.59
71096;DHT22;58753;49.440;11.126;2023-08-07T12:01:01;12.63;88.80
71096;DHT22;58753;49.440;11.126;2023-08-07T12:03:30;12.68;88.34
71096;DHT22;58753;49.440;11.126;2023-08-07T12:06:04;12.72;88.25
71096;DHT22;58753;49.440;11.126;2023-08-07T12:08:37;12.69;87.40
71096;DHT22;58753;49.440;11.126;2023-08-07T12:11:05;12.69;88.00
71096;DHT22;58753;49.440;11.126;2023-08-07T12:13:31;12.75;87.89
71096;DHT22;58753;49.440;11.126;2023-08-07T12:15:57;12.79;87.72
71096;DHT22;58753;49.440;11.126;2023-08-07T12:18:24;12.78;87.55
71096;DHT22;58753;49.440;11.126;2023-08-07T12:20:59;12.86;87.51
71096;DHT22;58753;49.440;11.126;2023-08-07T12:23:25;12.85;86.95
71096;DHT22;58753;49.440;11.126;2023-08-07T12:25:51;12.91;87.25
71096;DHT22;58753;49.440;11.126;2023-08-07T12:28:17;12.92;86.69
71096;DHT22;58753;49.440;11.126;2023-08-07T12:30:45;12.89;86.51
71096;DHT22;58753;49.440;11.126;2023-08-07T12:33:11;12.95;86.75
71096;DHT22;58753;49.440;11.126;2023-08-07T12:35:37;12.97;86.28
71096;DHT22;58753;49.440;11.126;2023-08-07T12:38:04;12.97;86.16
71096;DHT22;58753;49.440;11.126;2023-08-07T12:40:30;12.95;86.25
71096;DHT22;58753;49.440;11.126;2023-08-07T12:43:01;12.95;86.23
71096;DHT22;58753;49.440;11.126;2023-08-07T12:45:31;12.95;85.71
71096;DHT22;58753;49.440;11.126;2023-08-07T12:47:58;12.97;85.88
71096;DHT22;58753;49.440;11.126;2023-08-07T12:50:23;12.96;85.90
71096;DHT22;58753;49.440;11.126;2023-08-07T12:52:51;12.96;86.38
71096;DHT22;58753;49.440;11.126;2023-08-07T12:55:17;12.91;86.25
71096;DHT22;58753;49.440;11.126;2023-08-07T12:57:42;12.88;86.26
71096;DHT22;58753;49.440;11.126;2023-08-07T13:00:10;12.85;86.68
71096;DHT22;58753;49.440;11.126;2023-08-07T13:02:39;12.79;86.41
71096;DHT22;58753;49.440;11.126;2023-08-07T13:05:05;12.75;86.48
71096;DHT22;58753;49.440;11.126;2023-08-07T13:07:30;12.79;86.94
71096;DHT22;58753;49.440;11.126;2023-08-07T13:09:55;12.75;87.01
71096;DHT22;58753;49.440;11.126;2023-08-07T13:12:22;12.73;87.20
71096;DHT22;58753;49.440;11.126;2023-08-07T13:14:47;12.69;87.27
71096;DHT22;58753;49.440;11.126;2023-08-07T13:17:15;12.66;87.50
71096;DHT22;58753;49.440;11.126;2023-08-07T13:19:41;12.61;87.54
71096;DHT22;58753;49.440;11.126;2023-08-07T13:22:07;12.58;88.07
71096;DHT22;58753;49.440;11.126;2023-08-07T13:24:32;12.59;88.45
71096;DHT22;58753;49.440;11.126;2023-08-07T13:26:58;12.59;88.66
71096;DHT22;58753;49.440;11.126;2023-08-07T13:29:23;12.58;88.76
71096;DHT22;58753;49.440;11.126;2023-08-07T13:31:50;12.56;88.79
71096;DHT22;58753;49.440;11.126;2023-08-07T13:34:15;12.58;88.97
71096;DHT22;58753;49.440;11.126;2023-08-07T13:36:43;12.56;88.91
71096;DHT22;58753;49.440;11.126;2023-08-07T13:39:08;12.54;88.70
71096;DHT22;58753;49.440;11.126;2023-08-07T13:41:36;12.51;88.84
71096;DHT22;58753;49.440;11.126;2023-08-07T13:44:02;12.55;89.15
71096;DHT22;58753;49.440;11.126;2023-08-07T13:46:29;12.56;89.25
71096;DHT22;58753;49.440;11.126;2023-08-07T13:48:55;12.58;89.23
71096;DHT22;58753;49.440;11.126;2023-08-07T13:51:23;12.59;89.16
71096;DHT22;58753;49.440;11.126;2023-08-07T13:53:48;12.63;89.22
71096;DHT22;58753;49.440;11.126;2023-08-07T13:56:16;12.63;89.00
71096;DHT22;58753;49.440;11.126;2023-08-07T13:58:41;12.63;88.98
71096;DHT22;58753;49.440;11.126;2023-08-07T14:01:07;12.65;88.79
71096;DHT22;58753;49.440;11.126;2023-08-07T14:03:35;12.68;88.75
71096;DHT22;58753;49.440;11.126;2023-08-07T14:06:01;12.72;89.01
71096;DHT22;58753;49.440;11.126;2023-08-07T14:08:26;12.66;88.21
71096;DHT22;58753;49.440;11.126;2023-08-07T14:10:52;12.69;88.18
71096;DHT22;58753;49.440;11.126;2023-08-07T14:13:20;12.66;87.80
71096;DHT22;58753;49.440;11.126;2023-08-07T14:15:47;12.69;87.92
71096;DHT22;58753;49.440;11.126;2023-08-07T14:18:15;12.71;88.00
71096;DHT22;58753;49.440;11.126;2023-08-07T14:20:41;12.73;87.85
71096;DHT22;58753;49.440;11.126;2023-08-07T14:23:08;12.79;87.94
71096;DHT22;58753;49.440;11.126;2023-08-07T14:25:34;12.78;87.57
71096;DHT22;58753;49.440;11.126;2023-08-07T14:27:59;12.78;87.77
71096;DHT22;58753;49.440;11.126;2023-08-07T14:30:25;12.79;87.68
71096;DHT22;58753;49.440;11.126;2023-08-07T14:32:50;12.85;87.71
71096;DHT22;58753;49.440;11.126;2023-08-07T14:35:16;12.86;87.67
71096;DHT22;58753;49.440;11.126;2023-08-07T14:37:41;12.91;87.30
71096;DHT22;58753;49.440;11.126;2023-08-07T14:40:11;12.89;87.06
71096;DHT22;58753;49.440;11.126;2023-08-07T14:42:37;12.89;86.98
71096;DHT22;58753;49.440;11.126;2023-08-07T14:45:05;12.91;86.79
71096;DHT22;58753;49.440;11.126;2023-08-07T14:47:33;12.92;86.59
71096;DHT22;58753;49.440;11.126;2023-08-07T14:49:58;12.96;86.87
71096;DHT22;58753;49.440;11.126;2023-08-07T14:52:26;12.99;86.72
71096;DHT22;58753;49.440;11.126;2023-08-07T14:54:52;13.03;86.17
71096;DHT22;58753;49.440;11.126;2023-08-07T14:57:21;13.05;86.06
71096;DHT22;58753;49.440;11.126;2023-08-07T14:59:46;13.06;85.65
71096;DHT22;58753;49.440;11.126;2023-08-07T15:02:11;13.06;85.58
71096;DHT22;58753;49.440;11.126;2023-08-07T15:04:37;13.06;85.33
71096;DHT22;58753;49.440;11.126;2023-08-07T15:07:02;13.13;85.63
71096;DHT22;58753;49.440;11.126;2023-08-07T15:09:28;13.23;85.65
71096;DHT22;58753;49.440;11.126;2023-08-07T15:11:54;13.33;85.49
71096;DHT22;58753;49.440;11.126;2023-08-07T15:14:22;13.36;85.17
71096;DHT22;58753;49.440;11.126;2023-08-07T15:16:50;13.42;85.06
71096;DHT22;58753;49.440;11.126;2023-08-07T15:19:17;13.43;84.91
71096;DHT22;58753;49.440;11.126;2023-08-07T15:21:43;13.43;84.59
71096;DHT22;58753;49.440;11.126;2023-08-07T15:24:10;13.43;84.54
71096;DHT22;58753;49.440;11.126;2023-08-07T15:26:36;13.43;84.49
71096;DHT22;58753;49.440;11.126;2023-08-07T15:29:01;13.44;84.27
71096;DHT22;58753;49.440;11.126;2023-08-07T15:31:27;13.48;84.33
71096;DHT22;58753;49.440;11.126;2023-08-07T15:33:55;13.48;84.13
71096;DHT22;58753;49.440;11.126;2023-08-07T15:36:25;13.46;83.82